sensor_id;sensor_type;location;lat;lon;timestamp;P1;durP1;ratioP1;P2;durP2;ratioP2
12048;SDS011;6085;49.452;8.502;2024-02-15T00:02:45;2.00;;;1.83;;
12048;SDS011;6085;49.452;8.502;2024-02-15T00:06:47;2.35;;;1.73;;
12048;SDS011;6085;49.452;8.502;2024-02-15T00:10:49;2.53;;;2.33;;
12048;SDS011;6085;49.452;8.502;2024-02-15T00:14:54;1.65;;;1.55;;
12048;SDS011;6085;49.452;8.502;2024-02-15T00:18:58;1.92;;;1.80;;
12048;SDS011;6085;49.452;8.502;2024-02-15T00:23:00;2.67;;;2.03;;
12048;SDS011;6085;49.452;8.502;2024-02-15T00:27:02;2.50;;;2.30;;
12048;SDS011;6085;49.452;8.502;2024-02-15T00:31:06;2.60;;;2.30;;
12048;SDS011;6085;49.452;8.502;2024-02-15T00:35:08;1.95;;;1.80;;
12048;SDS011;6085;49.452;8.502;2024-02-15T00:39:09;2.10;;;2.00;;
12048;SDS011;6085;49.452;8.502;2024-02-15T00:43:12;2.22;;;2.00;;
12048;SDS011;6085;49.452;8.502;2024-02-15T00:47:16;2.40;;;2.20;;
12048;SDS011;6085;49.452;8.502;2024-02-15T00:51:19;4.53;;;2.47;;
12048;SDS011;6085;49.452;8.502;2024-02-15T00:55:21;2.65;;;2.22;;
12048;SDS011;6085;49.452;8.502;2024-02-15T00:59:23;2.50;;;2.30;;
12048;SDS011;6085;49.452;8.502;2024-02-15T01:03:26;5.50;;;3.08;;
12048;SDS011;6085;49.452;8.502;2024-02-15T01:07:28;4.63;;;3.15;;
12048;SDS011;6085;49.452;8.502;2024-02-15T01:11:30;2.67;;;2.47;;
12048;SDS011;6085;49.452;8.502;2024-02-15T01:15:33;6.65;;;2.53;;
12048;SDS011;6085;49.452;8.502;2024-02-15T01:19:38;2.97;;;2.50;;
12048;SDS011;6085;49.452;8.502;2024-02-15T01:23:40;1.67;;;1.58;;
12048;SDS011;6085;49.452;8.502;2024-02-15T01:27:44;2.50;;;2.13;;
12048;SDS011;6085;49.452;8.502;2024-02-15T01:31:46;2.22;;;1.98;;
12048;SDS011;6085;49.452;8.502;2024-02-15T01:35:49;2.47;;;1.65;;
12048;SDS011;6085;49.452;8.502;2024-02-15T01:39:51;2.00;;;1.83;;
12048;SDS011;6085;49.452;8.502;2024-02-15T01:43:53;2.10;;;1.80;;
12048;SDS011;6085;49.452;8.502;2024-02-15T01:47:55;1.90;;;1.60;;
12048;SDS011;6085;49.452;8.502;2024-02-15T01:51:58;1.42;;;1.38;;
12048;SDS011;6085;49.452;8.502;2024-02-15T01:56:03;1.65;;;1.55;;
12048;SDS011;6085;49.452;8.502;2024-02-15T02:00:05;3.33;;;2.20;;
12048;SDS011;6085;49.452;8.502;2024-02-15T02:04:09;1.30;;;1.20;;
12048;SDS011;6085;49.452;8.502;2024-02-15T02:08:12;1.33;;;1.23;;
12048;SDS011;6085;49.452;8.502;2024-02-15T02:12:14;1.45;;;1.35;;
12048;SDS011;6085;49.452;8.502;2024-02-15T02:16:24;1.52;;;1.30;;
12048;SDS011;6085;49.452;8.502;2024-02-15T02:20:27;1.30;;;1.20;;
12048;SDS011;6085;49.452;8.502;2024-02-15T02:24:30;1.45;;;1.20;;
12048;SDS011;6085;49.452;8.502;2024-02-15T02:28:38;1.02;;;1.02;;
12048;SDS011;6085;49.452;8.502;2024-02-15T02:32:40;2.80;;;1.25;;
12048;SDS011;6085;49.452;8.502;2024-02-15T02:36:43;3.17;;;1.60;;
12048;SDS011;6085;49.452;8.502;2024-02-15T02:40:45;1.92;;;1.77;;
12048;SDS011;6085;49.452;8.502;2024-02-15T02:44:49;2.53;;;2.33;;
12048;SDS011;6085;49.452;8.502;2024-02-15T02:48:51;2.60;;;2.08;;
12048;SDS011;6085;49.452;8.502;2024-02-15T02:52:53;3.63;;;2.47;;
12048;SDS011;6085;49.452;8.502;2024-02-15T02:56:55;2.13;;;1.85;;
12048;SDS011;6085;49.452;8.502;2024-02-15T03:00:58;2.15;;;1.65;;
12048;SDS011;6085;49.452;8.502;2024-02-15T03:05:01;4.18;;;2.00;;
12048;SDS011;6085;49.452;8.502;2024-02-15T03:09:04;2.67;;;1.90;;
12048;SDS011;6085;49.452;8.502;2024-02-15T03:13:07;2.47;;;2.28;;
12048;SDS011;6085;49.452;8.502;2024-02-15T03:17:10;2.65;;;2.42;;
12048;SDS011;6085;49.452;8.502;2024-02-15T03:21:12;2.72;;;2.00;;
12048;SDS011;6085;49.452;8.502;2024-02-15T03:25:15;2.78;;;2.03;;
12048;SDS011;6085;49.452;8.502;2024-02-15T03:29:17;3.22;;;2.13;;
12048;SDS011;6085;49.452;8.502;2024-02-15T03:33:21;2.33;;;2.15;;
12048;SDS011;6085;49.452;8.502;2024-02-15T03:37:26;2.15;;;2.03;;
12048;SDS011;6085;49.452;8.502;2024-02-15T03:41:29;2.40;;;2.20;;
12048;SDS011;6085;49.452;8.502;2024-02-15T03:45:32;3.30;;;2.28;;
12048;SDS011;6085;49.452;8.502;2024-02-15T03:49:35;1.63;;;1.52;;
12048;SDS011;6085;49.452;8.502;2024-02-15T03:53:37;3.55;;;1.92;;
12048;SDS011;6085;49.452;8.502;2024-02-15T03:57:40;2.75;;;2.40;;
12048;SDS011;6085;49.452;8.502;2024-02-15T04:01:43;2.90;;;2.60;;
12048;SDS011;6085;49.452;8.502;2024-02-15T04:05:47;2.17;;;2.08;;
12048;SDS011;6085;49.452;8.502;2024-02-15T04:09:49;2.22;;;1.98;;
12048;SDS011;6085;49.452;8.502;2024-02-15T04:13:51;2.75;;;2.30;;
12048;SDS011;6085;49.452;8.502;2024-02-15T04:17:53;2.83;;;1.98;;
12048;SDS011;6085;49.452;8.502;2024-02-15T04:21:57;2.70;;;2.00;;
12048;SDS011;6085;49.452;8.502;2024-02-15T04:26:00;1.70;;;1.60;;
12048;SDS011;6085;49.452;8.502;2024-02-15T04:30:03;1.98;;;1.60;;
12048;SDS011;6085;49.452;8.502;2024-02-15T04:34:09;2.50;;;2.30;;
12048;SDS011;6085;49.452;8.502;2024-02-15T04:38:12;2.50;;;2.17;;
12048;SDS011;6085;49.452;8.502;2024-02-15T04:42:15;3.30;;;2.15;;
12048;SDS011;6085;49.452;8.502;2024-02-15T04:46:18;3.00;;;1.70;;
12048;SDS011;6085;49.452;8.502;2024-02-15T04:50:21;1.60;;;1.50;;
12048;SDS011;6085;49.452;8.502;2024-02-15T04:54:27;3.88;;;1.50;;
12048;SDS011;6085;49.452;8.502;2024-02-15T04:58:29;3.75;;;2.30;;
12048;SDS011;6085;49.452;8.502;2024-02-15T05:02:31;5.38;;;3.05;;
12048;SDS011;6085;49.452;8.502;2024-02-15T05:06:33;7.25;;;4.07;;
12048;SDS011;6085;49.452;8.502;2024-02-15T05:10:37;9.35;;;5.07;;
12048;SDS011;6085;49.452;8.502;2024-02-15T05:14:39;8.55;;;4.88;;
12048;SDS011;6085;49.452;8.502;2024-02-15T05:18:41;6.78;;;4.60;;
12048;SDS011;6085;49.452;8.502;2024-02-15T05:22:43;6.72;;;4.28;;
12048;SDS011;6085;49.452;8.502;2024-02-15T05:26:47;6.97;;;4.53;;
12048;SDS011;6085;49.452;8.502;2024-02-15T05:30:50;7.07;;;4.03;;
12048;SDS011;6085;49.452;8.502;2024-02-15T05:34:52;7.20;;;4.28;;
12048;SDS011;6085;49.452;8.502;2024-02-15T05:38:55;4.22;;;3.60;;
12048;SDS011;6085;49.452;8.502;2024-02-15T05:42:58;4.10;;;3.55;;
12048;SDS011;6085;49.452;8.502;2024-02-15T05:47:02;3.40;;;3.10;;
12048;SDS011;6085;49.452;8.502;2024-02-15T05:51:04;4.85;;;3.35;;
12048;SDS011;6085;49.452;8.502;2024-02-15T05:55:07;4.97;;;3.47;;
12048;SDS011;6085;49.452;8.502;2024-02-15T05:59:10;3.03;;;2.83;;
12048;SDS011;6085;49.452;8.502;2024-02-15T06:03:13;2.15;;;2.03;;
12048;SDS011;6085;49.452;8.502;2024-02-15T06:07:14;3.13;;;2.47;;
12048;SDS011;6085;49.452;8.502;2024-02-15T06:11:19;2.85;;;2.17;;
12048;SDS011;6085;49.452;8.502;2024-02-15T06:15:22;2.40;;;2.30;;
12048;SDS011;6085;49.452;8.502;2024-02-15T06:19:24;3.65;;;2.80;;
12048;SDS011;6085;49.452;8.502;2024-02-15T06:23:26;4.40;;;2.90;;
12048;SDS011;6085;49.452;8.502;2024-02-15T06:27:28;3.75;;;2.72;;
12048;SDS011;6085;49.452;8.502;2024-02-15T06:31:32;2.95;;;2.72;;
12048;SDS011;6085;49.452;8.502;2024-02-15T06:35:51;3.30;;;2.42;;
12048;SDS011;6085;49.452;8.502;2024-02-15T06:40:10;3.05;;;2.63;;
12048;SDS011;6085;49.452;8.502;2024-02-15T06:44:13;2.42;;;2.05;;
12048;SDS011;6085;49.452;8.502;2024-02-15T06:48:16;3.40;;;2.13;;
12048;SDS011;6085;49.452;8.502;2024-02-15T06:52:18;2.38;;;2.20;;
12048;SDS011;6085;49.452;8.502;2024-02-15T06:56:20;2.88;;;2.55;;
12048;SDS011;6085;49.452;8.502;2024-02-15T07:00:22;3.05;;;2.50;;
12048;SDS011;6085;49.452;8.502;2024-02-15T07:04:26;4.28;;;3.28;;
12048;SDS011;6085;49.452;8.502;2024-02-15T07:08:28;2.92;;;2.65;;
12048;SDS011;6085;49.452;8.502;2024-02-15T07:12:30;2.90;;;2.58;;
12048;SDS011;6085;49.452;8.502;2024-02-15T07:16:32;3.20;;;1.95;;
12048;SDS011;6085;49.452;8.502;2024-02-15T07:20:36;4.95;;;2.40;;
12048;SDS011;6085;49.452;8.502;2024-02-15T07:24:38;2.78;;;2.53;;
12048;SDS011;6085;49.452;8.502;2024-02-15T07:28:39;2.00;;;1.90;;
12048;SDS011;6085;49.452;8.502;2024-02-15T07:32:41;4.88;;;2.55;;
12048;SDS011;6085;49.452;8.502;2024-02-15T07:36:45;2.92;;;2.60;;
12048;SDS011;6085;49.452;8.502;2024-02-15T07:40:47;3.83;;;2.35;;
12048;SDS011;6085;49.452;8.502;2024-02-15T07:44:49;3.45;;;2.75;;
12048;SDS011;6085;49.452;8.502;2024-02-15T07:48:50;3.75;;;3.22;;
12048;SDS011;6085;49.452;8.502;2024-02-15T07:52:53;4.97;;;2.20;;
12048;SDS011;6085;49.452;8.502;2024-02-15T07:56:55;2.67;;;2.00;;
12048;SDS011;6085;49.452;8.502;2024-02-15T08:00:58;3.83;;;2.95;;
12048;SDS011;6085;49.452;8.502;2024-02-15T08:05:00;2.58;;;1.90;;
12048;SDS011;6085;49.452;8.502;2024-02-15T08:09:06;2.17;;;1.60;;
12048;SDS011;6085;49.452;8.502;2024-02-15T08:13:12;2.67;;;2.08;;
12048;SDS011;6085;49.452;8.502;2024-02-15T08:17:15;2.83;;;2.28;;
12048;SDS011;6085;49.452;8.502;2024-02-15T08:21:17;2.30;;;1.83;;
12048;SDS011;6085;49.452;8.502;2024-02-15T08:25:20;2.10;;;1.90;;
12048;SDS011;6085;49.452;8.502;2024-02-15T08:29:22;2.00;;;1.80;;
12048;SDS011;6085;49.452;8.502;2024-02-15T08:33:24;4.20;;;1.77;;
12048;SDS011;6085;49.452;8.502;2024-02-15T08:37:28;2.47;;;2.22;;
12048;SDS011;6085;49.452;8.502;2024-02-15T08:41:32;3.00;;;2.08;;
12048;SDS011;6085;49.452;8.502;2024-02-15T08:45:34;2.80;;;1.95;;
12048;SDS011;6085;49.452;8.502;2024-02-15T08:49:37;1.80;;;1.58;;
12048;SDS011;6085;49.452;8.502;2024-02-15T08:53:40;1.70;;;1.60;;
12048;SDS011;6085;49.452;8.502;2024-02-15T08:57:43;2.88;;;1.73;;
12048;SDS011;6085;49.452;8.502;2024-02-15T09:01:45;2.35;;;1.63;;
12048;SDS011;6085;49.452;8.502;2024-02-15T09:05:47;4.65;;;2.00;;
12048;SDS011;6085;49.452;8.502;2024-02-15T09:09:49;3.13;;;1.60;;
12048;SDS011;6085;49.452;8.502;2024-02-15T09:13:52;1.40;;;1.30;;
12048;SDS011;6085;49.452;8.502;2024-02-15T09:17:55;2.08;;;1.60;;
12048;SDS011;6085;49.452;8.502;2024-02-15T09:21:57;1.83;;;1.70;;
12048;SDS011;6085;49.452;8.502;2024-02-15T09:25:59;3.17;;;1.92;;
12048;SDS011;6085;49.452;8.502;2024-02-15T09:30:03;2.28;;;2.08;;
12048;SDS011;6085;49.452;8.502;2024-02-15T09:34:08;1.50;;;1.40;;
12048;SDS011;6085;49.452;8.502;2024-02-15T09:38:09;2.53;;;1.73;;
12048;SDS011;6085;49.452;8.502;2024-02-15T09:42:11;1.80;;;1.70;;
12048;SDS011;6085;49.452;8.502;2024-02-15T09:46:14;1.50;;;1.40;;
12048;SDS011;6085;49.452;8.502;2024-02-15T09:50:17;1.60;;;1.50;;
12048;SDS011;6085;49.452;8.502;2024-02-15T09:54:19;2.00;;;1.90;;
12048;SDS011;6085;49.452;8.502;2024-02-15T09:58:22;2.00;;;1.65;;
12048;SDS011;6085;49.452;8.502;2024-02-15T10:02:26;1.55;;;1.45;;
12048;SDS011;6085;49.452;8.502;2024-02-15T10:06:28;2.67;;;1.40;;
12048;SDS011;6085;49.452;8.502;2024-02-15T10:10:30;2.28;;;1.25;;
12048;SDS011;6085;49.452;8.502;2024-02-15T10:14:34;1.30;;;1.20;;
12048;SDS011;6085;49.452;8.502;2024-02-15T10:18:37;2.08;;;1.40;;
12048;SDS011;6085;49.452;8.502;2024-02-15T10:22:39;2.13;;;1.30;;
12048;SDS011;6085;49.452;8.502;2024-02-15T10:26:41;1.73;;;1.38;;
12048;SDS011;6085;49.452;8.502;2024-02-15T10:30:43;2.38;;;1.30;;
12048;SDS011;6085;49.452;8.502;2024-02-15T10:34:50;1.20;;;1.10;;
12048;SDS011;6085;49.452;8.502;2024-02-15T10:38:53;3.92;;;1.30;;
12048;SDS011;6085;49.452;8.502;2024-02-15T10:43:12;1.33;;;1.10;;
12048;SDS011;6085;49.452;8.502;2024-02-15T10:47:17;2.50;;;0.93;;
12048;SDS011;6085;49.452;8.502;2024-02-15T10:51:21;1.30;;;1.15;;
12048;SDS011;6085;49.452;8.502;2024-02-15T10:55:28;1.58;;;1.00;;
12048;SDS011;6085;49.452;8.502;2024-02-15T10:59:38;1.48;;;0.90;;
12048;SDS011;6085;49.452;8.502;2024-02-15T11:03:48;1.13;;;0.80;;
12048;SDS011;6085;49.452;8.502;2024-02-15T11:07:54;1.20;;;0.80;;
12048;SDS011;6085;49.452;8.502;2024-02-15T11:11:56;4.28;;;1.17;;
12048;SDS011;6085;49.452;8.502;2024-02-15T11:15:58;1.33;;;1.23;;
12048;SDS011;6085;49.452;8.502;2024-02-15T11:20:01;2.25;;;1.27;;
12048;SDS011;6085;49.452;8.502;2024-02-15T11:28:36;0.98;;;0.77;;
12048;SDS011;6085;49.452;8.502;2024-02-15T11:32:41;2.72;;;1.52;;
12048;SDS011;6085;49.452;8.502;2024-02-15T11:36:47;0.88;;;0.88;;
12048;SDS011;6085;49.452;8.502;2024-02-15T11:41:03;1.20;;;0.90;;
12048;SDS011;6085;49.452;8.502;2024-02-15T11:45:07;0.90;;;0.90;;
12048;SDS011;6085;49.452;8.502;2024-02-15T11:49:14;3.08;;;1.38;;
12048;SDS011;6085;49.452;8.502;2024-02-15T11:53:17;1.40;;;1.23;;
12048;SDS011;6085;49.452;8.502;2024-02-15T11:57:21;0.82;;;0.75;;
12048;SDS011;6085;49.452;8.502;2024-02-15T12:01:36;1.75;;;1.05;;
12048;SDS011;6085;49.452;8.502;2024-02-15T12:05:55;2.90;;;1.40;;
12048;SDS011;6085;49.452;8.502;2024-02-15T12:10:15;2.40;;;1.10;;
12048;SDS011;6085;49.452;8.502;2024-02-15T12:14:37;2.10;;;1.00;;
12048;SDS011;6085;49.452;8.502;2024-02-15T12:18:56;1.58;;;1.00;;
12048;SDS011;6085;49.452;8.502;2024-02-15T12:22:59;0.77;;;0.57;;
12048;SDS011;6085;49.452;8.502;2024-02-15T12:27:01;1.02;;;1.02;;
12048;SDS011;6085;49.452;8.502;2024-02-15T12:31:06;0.90;;;0.70;;
12048;SDS011;6085;49.452;8.502;2024-02-15T12:35:13;0.90;;;0.90;;
12048;SDS011;6085;49.452;8.502;2024-02-15T12:39:24;1.23;;;0.88;;
12048;SDS011;6085;49.452;8.502;2024-02-15T12:43:28;0.70;;;0.70;;
12048;SDS011;6085;49.452;8.502;2024-02-15T12:47:31;1.23;;;0.88;;
12048;SDS011;6085;49.452;8.502;2024-02-15T12:51:33;0.70;;;0.70;;
12048;SDS011;6085;49.452;8.502;2024-02-15T12:55:36;3.03;;;1.00;;
12048;SDS011;6085;49.452;8.502;2024-02-15T12:59:39;0.80;;;0.80;;
12048;SDS011;6085;49.452;8.502;2024-02-15T13:03:43;1.80;;;1.08;;
12048;SDS011;6085;49.452;8.502;2024-02-15T13:07:46;2.00;;;1.00;;
12048;SDS011;6085;49.452;8.502;2024-02-15T13:11:48;1.52;;;0.98;;
12048;SDS011;6085;49.452;8.502;2024-02-15T13:15:50;0.77;;;0.70;;
12048;SDS011;6085;49.452;8.502;2024-02-15T13:19:54;1.42;;;1.00;;
12048;SDS011;6085;49.452;8.502;2024-02-15T13:24:04;0.80;;;0.80;;
12048;SDS011;6085;49.452;8.502;2024-02-15T13:28:06;0.65;;;0.65;;
12048;SDS011;6085;49.452;8.502;2024-02-15T13:32:10;1.30;;;0.50;;
12048;SDS011;6085;49.452;8.502;2024-02-15T13:36:13;0.63;;;0.57;;
12048;SDS011;6085;49.452;8.502;2024-02-15T13:40:16;1.45;;;0.50;;
12048;SDS011;6085;49.452;8.502;2024-02-15T13:44:19;1.05;;;0.70;;
12048;SDS011;6085;49.452;8.502;2024-02-15T13:48:22;2.25;;;0.63;;
12048;SDS011;6085;49.452;8.502;2024-02-15T13:52:27;2.17;;;0.70;;
12048;SDS011;6085;49.452;8.502;2024-02-15T13:56:29;1.67;;;0.68;;
12048;SDS011;6085;49.452;8.502;2024-02-15T14:00:31;6.40;;;0.80;;
12048;SDS011;6085;49.452;8.502;2024-02-15T14:04:33;0.93;;;0.60;;
12048;SDS011;6085;49.452;8.502;2024-02-15T14:08:37;2.35;;;0.93;;
12048;SDS011;6085;49.452;8.502;2024-02-15T14:12:39;2.92;;;0.90;;
12048;SDS011;6085;49.452;8.502;2024-02-15T14:16:41;0.52;;;0.52;;
12048;SDS011;6085;49.452;8.502;2024-02-15T14:20:43;0.60;;;0.60;;
12048;SDS011;6085;49.452;8.502;2024-02-15T14:24:48;1.35;;;0.55;;
12048;SDS011;6085;49.452;8.502;2024-02-15T14:28:50;2.00;;;0.93;;
12048;SDS011;6085;49.452;8.502;2024-02-15T14:32:52;1.17;;;0.50;;
12048;SDS011;6085;49.452;8.502;2024-02-15T14:37:03;0.43;;;0.40;;
12048;SDS011;6085;49.452;8.502;2024-02-15T14:41:07;0.52;;;0.50;;
12048;SDS011;6085;49.452;8.502;2024-02-15T14:45:11;1.65;;;0.70;;
12048;SDS011;6085;49.452;8.502;2024-02-15T14:49:13;0.40;;;0.40;;
12048;SDS011;6085;49.452;8.502;2024-02-15T14:53:17;1.10;;;0.68;;
12048;SDS011;6085;49.452;8.502;2024-02-15T14:57:20;1.50;;;0.60;;
12048;SDS011;6085;49.452;8.502;2024-02-15T15:01:22;0.65;;;0.65;;
12048;SDS011;6085;49.452;8.502;2024-02-15T15:05:24;0.90;;;0.57;;
12048;SDS011;6085;49.452;8.502;2024-02-15T15:09:43;2.00;;;0.60;;
12048;SDS011;6085;49.452;8.502;2024-02-15T15:14:15;1.38;;;0.82;;
12048;SDS011;6085;49.452;8.502;2024-02-15T15:18:19;0.90;;;0.70;;
12048;SDS011;6085;49.452;8.502;2024-02-15T15:22:21;0.43;;;0.43;;
12048;SDS011;6085;49.452;8.502;2024-02-15T15:26:23;1.02;;;0.52;;
12048;SDS011;6085;49.452;8.502;2024-02-15T15:30:27;0.60;;;0.60;;
12048;SDS011;6085;49.452;8.502;2024-02-15T15:34:30;0.93;;;0.70;;
12048;SDS011;6085;49.452;8.502;2024-02-15T15:38:32;0.65;;;0.65;;
12048;SDS011;6085;49.452;8.502;2024-02-15T15:42:35;1.38;;;1.13;;
12048;SDS011;6085;49.452;8.502;2024-02-15T15:46:40;0.68;;;0.60;;
12048;SDS011;6085;49.452;8.502;2024-02-15T15:50:42;0.68;;;0.60;;
12048;SDS011;6085;49.452;8.502;2024-02-15T15:54:44;0.85;;;0.77;;
12048;SDS011;6085;49.452;8.502;2024-02-15T15:58:46;0.88;;;0.70;;
12048;SDS011;6085;49.452;8.502;2024-02-15T16:02:50;0.70;;;0.70;;
12048;SDS011;6085;49.452;8.502;2024-02-15T16:06:53;0.82;;;0.50;;
12048;SDS011;6085;49.452;8.502;2024-02-15T16:10:55;3.63;;;0.93;;
12048;SDS011;6085;49.452;8.502;2024-02-15T16:14:58;5.82;;;1.30;;
12048;SDS011;6085;49.452;8.502;2024-02-15T16:19:01;0.88;;;0.60;;
12048;SDS011;6085;49.452;8.502;2024-02-15T16:23:04;0.85;;;0.63;;
12048;SDS011;6085;49.452;8.502;2024-02-15T16:27:06;1.27;;;0.40;;
12048;SDS011;6085;49.452;8.502;2024-02-15T16:31:08;0.73;;;0.73;;
12048;SDS011;6085;49.452;8.502;2024-02-15T16:35:11;1.60;;;0.60;;
12048;SDS011;6085;49.452;8.502;2024-02-15T16:39:15;0.85;;;0.75;;
12048;SDS011;6085;49.452;8.502;2024-02-15T16:43:17;0.80;;;0.80;;
12048;SDS011;6085;49.452;8.502;2024-02-15T16:47:20;2.17;;;0.65;;
12048;SDS011;6085;49.452;8.502;2024-02-15T16:51:23;2.97;;;0.90;;
12048;SDS011;6085;49.452;8.502;2024-02-15T16:55:26;0.70;;;0.70;;
12048;SDS011;6085;49.452;8.502;2024-02-15T16:59:31;0.85;;;0.55;;
12048;SDS011;6085;49.452;8.502;2024-02-15T17:03:34;0.95;;;0.95;;
12048;SDS011;6085;49.452;8.502;2024-02-15T17:07:37;0.73;;;0.70;;
12048;SDS011;6085;49.452;8.502;2024-02-15T17:11:39;1.33;;;0.90;;
12048;SDS011;6085;49.452;8.502;2024-02-15T17:15:41;3.85;;;1.73;;
12048;SDS011;6085;49.452;8.502;2024-02-15T17:19:43;1.90;;;1.30;;
12048;SDS011;6085;49.452;8.502;2024-02-15T17:23:47;2.28;;;1.48;;
12048;SDS011;6085;49.452;8.502;2024-02-15T17:27:49;1.88;;;0.93;;
12048;SDS011;6085;49.452;8.502;2024-02-15T17:31:51;1.13;;;1.02;;
12048;SDS011;6085;49.452;8.502;2024-02-15T17:35:53;1.10;;;1.00;;
12048;SDS011;6085;49.452;8.502;2024-02-15T17:39:58;1.10;;;1.10;;
12048;SDS011;6085;49.452;8.502;2024-02-15T17:43:59;1.98;;;1.10;;
12048;SDS011;6085;49.452;8.502;2024-02-15T17:48:02;1.33;;;1.00;;
12048;SDS011;6085;49.452;8.502;2024-02-15T17:52:05;1.30;;;1.20;;
12048;SDS011;6085;49.452;8.502;2024-02-15T17:56:10;1.13;;;1.13;;
12048;SDS011;6085;49.452;8.502;2024-02-15T18:00:14;1.33;;;0.88;;
12048;SDS011;6085;49.452;8.502;2024-02-15T18:04:19;1.70;;;1.30;;
12048;SDS011;6085;49.452;8.502;2024-02-15T18:08:21;2.05;;;1.25;;
12048;SDS011;6085;49.452;8.502;2024-02-15T18:12:26;1.65;;;1.38;;
12048;SDS011;6085;49.452;8.502;2024-02-15T18:16:28;0.90;;;0.90;;
12048;SDS011;6085;49.452;8.502;2024-02-15T18:20:30;2.35;;;1.30;;
12048;SDS011;6085;49.452;8.502;2024-02-15T18:24:32;1.20;;;1.20;;
12048;SDS011;6085;49.452;8.502;2024-02-15T18:28:35;2.00;;;1.27;;
12048;SDS011;6085;49.452;8.502;2024-02-15T18:32:37;2.40;;;1.40;;
12048;SDS011;6085;49.452;8.502;2024-02-15T18:36:39;1.95;;;1.52;;
12048;SDS011;6085;49.452;8.502;2024-02-15T18:40:41;1.90;;;1.65;;
12048;SDS011;6085;49.452;8.502;2024-02-15T18:44:45;1.38;;;1.27;;
12048;SDS011;6085;49.452;8.502;2024-02-15T18:48:47;1.63;;;1.48;;
12048;SDS011;6085;49.452;8.502;2024-02-15T18:52:49;3.55;;;1.42;;
12048;SDS011;6085;49.452;8.502;2024-02-15T18:56:51;4.53;;;3.15;;
12048;SDS011;6085;49.452;8.502;2024-02-15T19:00:56;7.20;;;1.98;;
12048;SDS011;6085;49.452;8.502;2024-02-15T19:04:58;1.50;;;1.40;;
12048;SDS011;6085;49.452;8.502;2024-02-15T19:09:11;1.63;;;1.52;;
12048;SDS011;6085;49.452;8.502;2024-02-15T19:13:13;2.33;;;1.60;;
12048;SDS011;6085;49.452;8.502;2024-02-15T19:17:16;1.63;;;1.52;;
12048;SDS011;6085;49.452;8.502;2024-02-15T19:21:18;3.55;;;2.25;;
12048;SDS011;6085;49.452;8.502;2024-02-15T19:25:22;2.33;;;2.00;;
12048;SDS011;6085;49.452;8.502;2024-02-15T19:29:25;2.20;;;2.00;;
12048;SDS011;6085;49.452;8.502;2024-02-15T19:33:29;2.63;;;1.85;;
12048;SDS011;6085;49.452;8.502;2024-02-15T19:37:31;1.55;;;1.40;;
12048;SDS011;6085;49.452;8.502;2024-02-15T19:41:33;5.18;;;2.03;;
12048;SDS011;6085;49.452;8.502;2024-02-15T19:45:35;2.35;;;2.00;;
12048;SDS011;6085;49.452;8.502;2024-02-15T19:49:43;3.15;;;2.03;;
12048;SDS011;6085;49.452;8.502;2024-02-15T19:53:45;2.25;;;2.00;;
12048;SDS011;6085;49.452;8.502;2024-02-15T19:57:49;2.35;;;1.88;;
12048;SDS011;6085;49.452;8.502;2024-02-15T20:01:52;3.38;;;1.60;;
12048;SDS011;6085;49.452;8.502;2024-02-15T20:05:56;1.73;;;1.38;;
12048;SDS011;6085;49.452;8.502;2024-02-15T20:09:58;2.67;;;1.50;;
12048;SDS011;6085;49.452;8.502;2024-02-15T20:14:00;2.03;;;1.90;;
12048;SDS011;6085;49.452;8.502;2024-02-15T20:18:04;2.03;;;1.77;;
12048;SDS011;6085;49.452;8.502;2024-02-15T20:22:08;3.55;;;2.15;;
12048;SDS011;6085;49.452;8.502;2024-02-15T20:26:10;2.20;;;1.60;;
12048;SDS011;6085;49.452;8.502;2024-02-15T20:30:13;2.40;;;1.17;;
12048;SDS011;6085;49.452;8.502;2024-02-15T20:34:17;2.20;;;1.10;;
12048;SDS011;6085;49.452;8.502;2024-02-15T20:38:22;1.15;;;1.02;;
12048;SDS011;6085;49.452;8.502;2024-02-15T20:42:28;2.60;;;1.80;;
12048;SDS011;6085;49.452;8.502;2024-02-15T20:46:30;1.40;;;1.30;;
12048;SDS011;6085;49.452;8.502;2024-02-15T20:50:32;2.05;;;1.75;;
12048;SDS011;6085;49.452;8.502;2024-02-15T20:54:36;2.53;;;1.90;;
12048;SDS011;6085;49.452;8.502;2024-02-15T20:58:38;1.42;;;0.88;;
12048;SDS011;6085;49.452;8.502;2024-02-15T21:02:40;1.08;;;0.90;;
12048;SDS011;6085;49.452;8.502;2024-02-15T21:06:42;2.13;;;1.30;;
12048;SDS011;6085;49.452;8.502;2024-02-15T21:10:46;2.78;;;1.20;;
12048;SDS011;6085;49.452;8.502;2024-02-15T21:14:47;1.65;;;1.10;;
12048;SDS011;6085;49.452;8.502;2024-02-15T21:18:50;1.40;;;1.20;;
12048;SDS011;6085;49.452;8.502;2024-02-15T21:22:53;1.45;;;1.30;;
12048;SDS011;6085;49.452;8.502;2024-02-15T21:26:58;1.50;;;1.38;;
12048;SDS011;6085;49.452;8.502;2024-02-15T21:31:00;0.85;;;0.85;;
12048;SDS011;6085;49.452;8.502;2024-02-15T21:35:03;0.90;;;0.90;;
12048;SDS011;6085;49.452;8.502;2024-02-15T21:39:06;1.55;;;1.20;;
12048;SDS011;6085;49.452;8.502;2024-02-15T21:43:09;3.22;;;1.52;;
12048;SDS011;6085;49.452;8.502;2024-02-15T21:47:11;1.88;;;1.38;;
12048;SDS011;6085;49.452;8.502;2024-02-15T21:51:14;2.15;;;1.23;;
12048;SDS011;6085;49.452;8.502;2024-02-15T21:55:16;1.55;;;1.45;;
12048;SDS011;6085;49.452;8.502;2024-02-15T21:59:19;2.17;;;1.33;;
12048;SDS011;6085;49.452;8.502;2024-02-15T22:03:21;2.65;;;1.75;;
12048;SDS011;6085;49.452;8.502;2024-02-15T22:07:23;2.30;;;1.52;;
12048;SDS011;6085;49.452;8.502;2024-02-15T22:11:25;1.10;;;0.93;;
12048;SDS011;6085;49.452;8.502;2024-02-15T22:15:28;1.33;;;1.05;;
12048;SDS011;6085;49.452;8.502;2024-02-15T22:19:32;1.25;;;1.13;;
12048;SDS011;6085;49.452;8.502;2024-02-15T22:23:34;1.40;;;1.27;;
12048;SDS011;6085;49.452;8.502;2024-02-15T22:27:36;1.88;;;1.30;;
12048;SDS011;6085;49.452;8.502;2024-02-15T22:31:40;1.58;;;1.25;;
12048;SDS011;6085;49.452;8.502;2024-02-15T22:35:42;3.88;;;2.53;;
12048;SDS011;6085;49.452;8.502;2024-02-15T22:39:44;1.40;;;1.30;;
12048;SDS011;6085;49.452;8.502;2024-02-15T22:43:47;1.42;;;1.33;;
12048;SDS011;6085;49.452;8.502;2024-02-15T22:47:51;1.23;;;1.13;;
12048;SDS011;6085;49.452;8.502;2024-02-15T22:51:53;1.17;;;1.08;;
12048;SDS011;6085;49.452;8.502;2024-02-15T22:55:55;2.58;;;1.27;;
12048;SDS011;6085;49.452;8.502;2024-02-15T22:59:57;3.03;;;1.25;;
12048;SDS011;6085;49.452;8.502;2024-02-15T23:04:00;2.00;;;1.63;;
12048;SDS011;6085;49.452;8.502;2024-02-15T23:08:02;2.65;;;1.75;;
12048;SDS011;6085;49.452;8.502;2024-02-15T23:12:05;0.98;;;0.98;;
12048;SDS011;6085;49.452;8.502;2024-02-15T23:16:07;2.38;;;1.40;;
12048;SDS011;6085;49.452;8.502;2024-02-15T23:20:10;1.65;;;1.45;;
12048;SDS011;6085;49.452;8.502;2024-02-15T23:24:13;1.40;;;1.30;;
12048;SDS011;6085;49.452;8.502;2024-02-15T23:28:15;1.98;;;1.23;;
12048;SDS011;6085;49.452;8.502;2024-02-15T23:32:17;1.33;;;1.23;;
12048;SDS011;6085;49.452;8.502;2024-02-15T23:36:21;1.42;;;1.23;;
12048;SDS011;6085;49.452;8.502;2024-02-15T23:40:40;1.40;;;1.30;;
12048;SDS011;6085;49.452;8.502;2024-02-15T23:44:42;3.17;;;1.88;;
12048;SDS011;6085;49.452;8.502;2024-02-15T23:48:44;1.58;;;1.42;;
12048;SDS011;6085;49.452;8.502;2024-02-15T23:52:47;3.35;;;1.50;;
12048;SDS011;6085;49.452;8.502;2024-02-15T23:56:49;1.95;;;1.23;;
